AirNav   SIMCOM
 
 735 users online  

2TS9 McBee Field Airport
Wills Point, Texas, USA


FAA INFORMATION EFFECTIVE 20 JULY 2017

Location

FAA Identifier: 2TS9
Lat/Long: 32-45-26.7000N / 096-03-26.0000W
32-45.445000N / 096-03.433333W
32.7574167 / -96.0572222
(estimated)
Elevation: 543 ft. / 166 m
From city: 4 miles NW of WILLS POINT, TX
Time zone: UTC -5 (UTC -6 during Standard Time)
Zip code: 75169

Airport Operations

Airport use: Private use. Permission required prior to landing
Activation date: 10/2015
Control tower: no
ARTCC: FORT WORTH CENTER
FSS: FORT WORTH FLIGHT SERVICE STATION
Attendance: UNATNDD
Wind indicator: yes
Segmented circle: no

Airport Communications

WX ASOS at TRL (11 nm W): 119.275 (972-551-1334)
WX AWOS-3 at GVT (19 nm N): 133.425 (903-455-7703)

Nearby radio navigation aids

VOR radial/distance  VOR name  Freq  Var
CQYr007/35.3CEDAR CREEK VORTAC114.8006E
UIMr250/35.6QUITMAN VOR/DME114.0008E
SLRr216/37.0SULPHUR SPRINGS VOR/DME109.0008E

 
NDB name  Hdg/Dist  Freq  Var  ID
TRAVIS085/9.726006EAVZ .- ...- --..
CADDO MILLS144/19.531606EMII -- .. ..
MESQUITE094/24.024803EPQF .--. --.- ..-.
JECCA071/24.638806EJUG .--- ..- --.
ATHENS336/37.726906EAHX .- .... -..-

Airport Services

Runway Information

Runway 4/22

Dimensions: 1920 x 60 ft. / 585 x 18 m
Surface: turf
RUNWAY 4  RUNWAY 22
Traffic pattern: leftleft

Airport Ownership and Management from official FAA records

Ownership: Privately-owned
Owner: ROBERT NYCHKA
2830 VZ COUNTY ROAD 3804
WILLS POINT, TX 75169
Phone 214-293-1630
Manager: ROBERT NYCHKA
2830 VZ COUNTY ROAD 3804
WILLS POINT, TX 75169
Phone 214-293-1630

Airport Operational Statistics

Aircraft based on the field: 1
Single engine airplanes: 1
    

Instrument Procedures

There are no published instrument procedures at 2TS9.

Some nearby airports with instrument procedures:

KTRL - Terrell Municipal Airport (11 nm W)
KGVT - Majors Airport (19 nm N)
7F3 - Caddo Mills Municipal Airport (19 nm NW)
F46 - Ralph M Hall/Rockwall Municipal Airport (22 nm NW)
KHQZ - Mesquite Metro Airport (24 nm W)
 
Loc | Ops | Rwys | IFR | FBO | Links
Com | Nav | Svcs | Stats | Notes


 
Aerial photo
No photo
 
Airport distance calculator
Flying to McBee Field Airport? Find the distance to fly.

From to 2TS9

Sunrise and sunset
Times for 26-Jul-2017
 Local
(UTC-5)
 Zulu
(UTC)
Morning civil twilight06:0811:08
Sunrise06:3511:35
Sunset20:2601:26
Evening civil twilight20:5401:54

Current date and time
Zulu (UTC)  27-Jul-2017 03:57:12
Local (UTC-5)  26-Jul-2017 22:57:12
 
METAR
KTRL 
11nm W 
270253Z AUTO 14006KT 10SM CLR 31/22 A3001 RMK AO2 SLP153 60000 T03060217 51009
KGVT 
19nm N 
270335Z AUTO 13006KT 10SM CLR 30/23 A3002 RMK AO2
TAF
KDAL 
40nm W 
262059Z 2621/2718 18011KT P6SM SCT050 FM270300 18009KT P6SM SCT250 FM271500 20014KT P6SM SCT050
KTYR 
41nm SE 
261720Z 2618/2718 20011KT P6SM SCT035 FM270000 16007KT P6SM SCT040 FM271000 19007KT P6SM SCT015 TEMPO 2712/2715 4SM BR BKN015 FM271500 22008KT P6SM SCT030
KDFW 
49nm W 
262059Z 2621/2724 18012KT P6SM SCT050 FM270300 18009KT P6SM SCT250 FM271500 20014KT P6SM SCT050
NOTAMs
Click for the latest NOTAMs
NOTAMs are issued by the DoD/FAA and will open in a separate window not controlled by AirNav.

 

 
 

Would you like to see your business listed on this page?

 If your business provides an interesting product or service to pilots, flight crews, aircraft, or users of the McBee Field Airport, you should consider listing it here.  To start the listing process, click on the button below
 
Add a business
 

Other Pages about McBee Field Airport

Update a link
 
Copyright © AirNav, LLC. All rights reserved. Privacy Policy  Contact